Time,TemperatureF,DewpointF,PressureIn,WindDirection,WindDirectionDegrees,WindSpeedMPH,WindSpeedGustMPH,Humidity,HourlyPrecipIn,Conditions,Clouds,dailyrainin,SoftwareType,DateUTC
2013-03-28 00:03:00,21.4,15.6,30.32,South,180,0.0,0.0,78,0.00,OVC,,0.00,WeatherDisplay:10.37,2013-03-28 05:03:00,
2013-03-28 00:08:00,21.4,15.3,30.32,South,180,0.0,0.0,77,0.00,OVC,,0.00,WeatherDisplay:10.37,2013-03-28 05:08:00,
2013-03-28 00:13:00,21.0,14.6,30.32,South,180,0.0,0.0,76,0.00,OVC,,0.00,WeatherDisplay:10.37,2013-03-28 05:13:00,
2013-03-28 00:18:00,20.8,14.4,30.32,South,180,0.0,0.0,76,0.00,OVC,,0.00,WeatherDisplay:10.37,2013-03-28 05:18:00,
2013-03-28 00:23:00,20.5,14.7,30.32,South,180,0.0,0.0,78,0.00,OVC,,0.00,WeatherDisplay:10.37,2013-03-28 05:23:00,
2013-03-28 00:28:00,20.3,15.4,30.32,South,180,0.0,0.0,81,0.00,OVC,,0.00,WeatherDisplay:10.37,2013-03-28 05:28:00,
2013-03-28 00:34:00,20.3,16.0,30.32,South,180,0.0,0.0,83,0.00,OVC,,0.00,WeatherDisplay:10.37,2013-03-28 05:34:00,
2013-03-28 00:39:00,20.3,15.7,30.32,South,180,0.0,0.0,82,0.00,OVC,,0.00,WeatherDisplay:10.37,2013-03-28 05:39:00,
2013-03-28 00:44:00,20.1,15.5,30.32,South,180,0.0,0.0,82,0.00,OVC,,0.00,WeatherDisplay:10.37,2013-03-28 05:44:00,
2013-03-28 00:49:00,19.9,15.0,30.32,South,180,0.0,0.0,81,0.00,OVC,,0.00,WeatherDisplay:10.37,2013-03-28 05:49:00,
2013-03-28 00:54:00,19.8,15.5,30.32,South,180,0.0,0.0,83,0.00,OVC,,0.00,WeatherDisplay:10.37,2013-03-28 05:54:00,
2013-03-28 00:59:00,19.8,15.2,30.33,South,180,0.0,0.0,82,0.00,OVC,,0.00,WeatherDisplay:10.37,2013-03-28 05:59:00,
2013-03-28 01:04:00,19.6,14.7,30.33,South,180,0.0,0.0,81,0.00,OVC,,0.00,WeatherDisplay:10.37,2013-03-28 06:04:00,
2013-03-28 01:09:00,19.4,14.5,30.33,South,180,0.0,0.0,81,0.00,OVC,,0.00,WeatherDisplay:10.37,2013-03-28 06:09:00,
2013-03-28 01:14:00,19.4,14.8,30.33,South,180,0.0,0.0,82,0.00,OVC,,0.00,WeatherDisplay:10.37,2013-03-28 06:14:00,
2013-03-28 01:19:00,19.0,14.4,30.33,South,180,0.0,0.0,82,0.00,OVC,,0.00,WeatherDisplay:10.37,2013-03-28 06:19:00,
2013-03-28 01:25:00,19.0,15.5,30.33,South,180,0.0,0.0,86,0.00,OVC,,0.00,WeatherDisplay:10.37,2013-03-28 06:25:00,
2013-03-28 01:30:00,19.0,15.5,30.33,South,180,0.0,0.0,86,0.00,OVC,,0.00,WeatherDisplay:10.37,2013-03-28 06:30:00,
2013-03-28 01:35:00,19.0,15.5,30.33,South,180,0.0,0.0,86,0.00,OVC,,0.00,WeatherDisplay:10.37,2013-03-28 06:35:00,
2013-03-28 01:40:00,19.0,15.5,30.33,South,180,0.0,0.0,86,0.00,OVC,,0.00,WeatherDisplay:10.37,2013-03-28 06:40:00,
2013-03-28 01:45:00,18.9,14.9,30.33,South,180,0.0,0.0,84,0.00,OVC,,0.00,WeatherDisplay:10.37,2013-03-28 06:45:00,
2013-03-28 01:50:00,19.0,15.8,30.33,SW,225,0.0,0.0,87,0.00,OVC,,0.00,WeatherDisplay:10.37,2013-03-28 06:50:00,
2013-03-28 01:55:00,18.7,15.5,30.33,SW,225,0.0,0.0,87,0.00,OVC,,0.00,WeatherDisplay:10.37,2013-03-28 06:55:00,
2013-03-28 02:00:00,18.7,15.5,30.33,ESE,112,0.0,0.0,87,0.00,OVC,,0.00,WeatherDisplay:10.37,2013-03-28 07:00:00,
2013-03-28 02:05:00,18.7,15.5,30.33,ESE,112,0.0,0.0,87,0.00,OVC,,0.00,WeatherDisplay:10.37,2013-03-28 07:05:00,
2013-03-28 02:11:00,18.7,15.5,30.33,ESE,112,0.0,0.0,87,0.00,OVC,,0.00,WeatherDisplay:10.37,2013-03-28 07:11:00,
2013-03-28 02:16:00,18.5,15.3,30.33,ESE,112,0.0,0.0,87,0.00,OVC,,0.00,WeatherDisplay:10.37,2013-03-28 07:16:00,
2013-03-28 02:21:00,18.5,15.3,30.33,ESE,112,0.0,0.0,87,0.00,OVC,,0.00,WeatherDisplay:10.37,2013-03-28 07:21:00,
2013-03-28 02:26:00,18.3,15.1,30.33,ESE,112,0.0,0.0,87,0.00,OVC,,0.00,WeatherDisplay:10.37,2013-03-28 07:26:00,
2013-03-28 02:31:00,18.1,14.9,30.33,ESE,112,0.0,0.0,87,0.00,OVC,,0.00,WeatherDisplay:10.37,2013-03-28 07:31:00,
2013-03-28 02:36:00,18.3,15.3,30.32,ESE,112,0.0,0.0,88,0.00,OVC,,0.00,WeatherDisplay:10.37,2013-03-28 07:36:00,
2013-03-28 02:42:00,18.0,15.0,30.32,ESE,112,0.0,0.0,88,0.00,OVC,,0.00,WeatherDisplay:10.37,2013-03-28 07:42:00,
2013-03-28 02:47:00,18.0,15.0,30.32,ESE,112,0.0,0.0,88,0.00,OVC,,0.00,WeatherDisplay:10.37,2013-03-28 07:47:00,
2013-03-28 02:52:00,17.8,14.8,30.32,ESE,112,0.0,0.0,88,0.00,OVC,,0.00,WeatherDisplay:10.37,2013-03-28 07:52:00,
2013-03-28 02:57:00,17.8,14.6,30.32,ESE,112,0.0,0.0,87,0.00,OVC,,0.00,WeatherDisplay:10.37,2013-03-28 07:57:00,
2013-03-28 03:02:00,17.6,14.4,30.32,ESE,112,0.0,0.0,87,0.00,OVC,,0.00,WeatherDisplay:10.37,2013-03-28 08:02:00,
2013-03-28 03:07:00,17.6,14.7,30.32,ESE,112,0.0,0.0,88,0.00,OVC,,0.00,WeatherDisplay:10.37,2013-03-28 08:07:00,
2013-03-28 03:12:00,17.4,14.2,30.32,ESE,112,0.0,0.0,87,0.00,OVC,,0.00,WeatherDisplay:10.37,2013-03-28 08:12:00,
2013-03-28 03:17:00,17.2,14.3,30.32,ESE,112,0.0,0.0,88,0.00,OVC,,0.00,WeatherDisplay:10.37,2013-03-28 08:17:00,
2013-03-28 03:23:00,16.9,13.4,30.32,SW,225,0.0,0.0,86,0.00,OVC,,0.00,WeatherDisplay:10.37,2013-03-28 08:23:00,
2013-03-28 03:28:00,16.9,13.4,30.32,SW,225,0.0,0.0,86,0.00,OVC,,0.00,WeatherDisplay:10.37,2013-03-28 08:28:00,
2013-03-28 03:33:00,16.7,13.5,30.32,SW,225,0.0,0.0,87,0.00,OVC,,0.00,WeatherDisplay:10.37,2013-03-28 08:33:00,
2013-03-28 03:38:00,16.7,13.8,30.32,ESE,112,0.0,0.0,88,0.00,OVC,,0.00,WeatherDisplay:10.37,2013-03-28 08:38:00,
2013-03-28 03:43:00,16.7,14.0,30.32,ESE,112,0.0,0.0,89,0.00,OVC,,0.00,WeatherDisplay:10.37,2013-03-28 08:43:00,
2013-03-28 03:48:00,16.5,13.6,30.32,ESE,112,0.0,0.0,88,0.00,OVC,,0.00,WeatherDisplay:10.37,2013-03-28 08:48:00,
2013-03-28 03:53:00,16.5,13.6,30.32,ESE,112,0.0,0.0,88,0.00,OVC,,0.00,WeatherDisplay:10.37,2013-03-28 08:53:00,
2013-03-28 03:59:00,16.5,13.8,30.32,ESE,112,0.0,0.0,89,0.00,OVC,,0.00,WeatherDisplay:10.37,2013-03-28 08:59:00,
2013-03-28 04:04:00,16.5,13.8,30.32,ESE,112,0.0,0.0,89,0.00,OVC,,0.00,WeatherDisplay:10.37,2013-03-28 09:04:00,
2013-03-28 04:09:00,16.3,13.6,30.32,ESE,112,0.0,0.0,89,0.00,OVC,,0.00,WeatherDisplay:10.37,2013-03-28 09:09:00,
2013-03-28 04:14:00,16.3,13.6,30.32,ESE,112,0.0,0.0,89,0.00,OVC,,0.00,WeatherDisplay:10.37,2013-03-28 09:14:00,
2013-03-28 04:19:00,16.0,13.1,30.32,ESE,112,0.0,0.0,88,0.00,OVC,,0.00,WeatherDisplay:10.37,2013-03-28 09:19:00,
2013-03-28 04:24:00,16.0,13.3,30.31,ESE,112,0.0,0.0,89,0.00,OVC,,0.00,WeatherDisplay:10.37,2013-03-28 09:24:00,
2013-03-28 04:29:00,16.5,14.1,30.31,ESE,112,0.0,0.0,90,0.00,OVC,,0.00,WeatherDisplay:10.37,2013-03-28 09:29:00,
2013-03-28 04:34:00,16.0,13.3,30.32,ESE,112,0.0,0.0,89,0.00,OVC,,0.00,WeatherDisplay:10.37,2013-03-28 09:34:00,
2013-03-28 04:39:00,15.8,13.1,30.32,ESE,112,0.0,0.0,89,0.00,OVC,,0.00,WeatherDisplay:10.37,2013-03-28 09:39:00,
2013-03-28 04:44:00,15.4,12.5,30.32,NNE,22,0.0,0.0,88,0.00,OVC,,0.00,WeatherDisplay:10.37,2013-03-28 09:44:00,
2013-03-28 04:50:00,15.6,12.9,30.31,NNE,22,0.0,0.0,89,0.00,OVC,,0.00,WeatherDisplay:10.37,2013-03-28 09:50:00,
2013-03-28 04:55:00,15.6,12.9,30.31,NNE,22,0.0,0.0,89,0.00,OVC,,0.00,WeatherDisplay:10.37,2013-03-28 09:55:00,
2013-03-28 05:00:00,15.4,12.7,30.32,NNE,22,0.0,0.0,89,0.00,OVC,,0.00,WeatherDisplay:10.37,2013-03-28 10:00:00,
2013-03-28 05:05:00,15.8,13.4,30.32,NNE,22,0.0,0.0,90,0.00,OVC,,0.00,WeatherDisplay:10.37,2013-03-28 10:05:00,
2013-03-28 05:10:00,15.6,13.2,30.32,NNE,22,0.0,0.0,90,0.00,OVC,,0.00,WeatherDisplay:10.37,2013-03-28 10:10:00,
2013-03-28 05:15:00,15.3,12.6,30.32,NNE,22,0.0,0.0,89,0.00,OVC,,0.00,WeatherDisplay:10.37,2013-03-28 10:15:00,
2013-03-28 05:20:00,15.1,11.9,30.32,NNE,22,0.0,0.0,87,0.00,OVC,,0.00,WeatherDisplay:10.37,2013-03-28 10:20:00,
2013-03-28 05:25:00,14.7,11.3,30.32,NNE,22,0.0,0.0,86,0.00,OVC,,0.00,WeatherDisplay:10.37,2013-03-28 10:25:00,
2013-03-28 05:30:00,14.5,10.8,30.32,NNE,22,0.0,0.0,85,0.00,OVC,,0.00,WeatherDisplay:10.37,2013-03-28 10:30:00,
2013-03-28 05:35:00,14.5,10.8,30.32,NNE,22,0.0,0.0,85,0.00,OVC,,0.00,WeatherDisplay:10.37,2013-03-28 10:35:00,
2013-03-28 05:41:00,14.9,12.2,30.32,NNE,22,0.0,0.0,89,0.00,OVC,,0.00,WeatherDisplay:10.37,2013-03-28 10:41:00,
2013-03-28 05:46:00,15.3,13.1,30.32,NNE,22,0.0,0.0,91,0.00,OVC,,0.00,WeatherDisplay:10.37,2013-03-28 10:46:00,
2013-03-28 05:51:00,15.3,13.1,30.32,NNE,22,0.2,1.1,91,0.00,OVC,,0.00,WeatherDisplay:10.37,2013-03-28 10:51:00,
2013-03-28 05:56:00,15.4,13.2,30.32,NNE,22,1.1,1.1,91,0.00,OVC,,0.00,WeatherDisplay:10.37,2013-03-28 10:56:00,
2013-03-28 06:01:00,15.4,13.2,30.32,NNE,22,0.0,0.0,91,0.00,OVC,,0.00,WeatherDisplay:10.37,2013-03-28 11:01:00,
2013-03-28 06:06:00,15.4,13.2,30.32,NNE,22,1.3,1.3,91,0.00,OVC,,0.00,WeatherDisplay:10.37,2013-03-28 11:06:00,
2013-03-28 06:11:00,15.4,13.2,30.32,NNE,22,0.0,0.0,91,0.00,OVC,,0.00,WeatherDisplay:10.37,2013-03-28 11:11:00,
2013-03-28 06:17:00,15.4,13.2,30.32,NNE,22,0.0,0.0,91,0.00,OVC,,0.00,WeatherDisplay:10.37,2013-03-28 11:17:00,
2013-03-28 06:22:00,15.4,13.2,30.32,NNE,22,0.0,0.0,91,0.00,OVC,,0.00,WeatherDisplay:10.37,2013-03-28 11:22:00,
2013-03-28 06:27:00,15.1,12.9,30.32,NNE,22,0.0,0.0,91,0.00,OVC,,0.00,WeatherDisplay:10.37,2013-03-28 11:27:00,
2013-03-28 06:32:00,14.7,12.3,30.32,NNE,22,0.0,0.0,90,0.00,OVC,,0.00,WeatherDisplay:10.37,2013-03-28 11:32:00,
2013-03-28 06:37:00,14.5,11.9,30.32,NNE,22,0.0,0.0,89,0.00,OVC,,0.00,WeatherDisplay:10.37,2013-03-28 11:37:00,
2013-03-28 06:42:00,14.4,12.0,30.32,NNE,22,0.0,0.0,90,0.00,OVC,,0.00,WeatherDisplay:10.37,2013-03-28 11:42:00,
2013-03-28 06:47:00,14.4,12.3,30.32,NNE,22,0.0,0.0,91,0.00,OVC,,0.00,WeatherDisplay:10.37,2013-03-28 11:47:00,
2013-03-28 06:52:00,14.5,12.4,30.32,NNE,22,0.4,1.7,91,0.00,OVC,,0.00,WeatherDisplay:10.37,2013-03-28 11:52:00,
2013-03-28 06:57:00,14.7,12.6,30.32,NNE,22,2.2,2.3,91,0.00,OVC,,0.00,WeatherDisplay:10.37,2013-03-28 11:57:00,
2013-03-28 07:02:00,14.5,12.4,30.32,NNE,22,0.7,1.1,91,0.00,OVC,,0.00,WeatherDisplay:10.37,2013-03-28 12:02:00,
2013-03-28 07:08:00,14.5,12.4,30.32,NNE,22,0.0,0.0,91,0.00,OVC,,0.00,WeatherDisplay:10.37,2013-03-28 12:08:00,
2013-03-28 07:13:00,14.7,12.6,30.32,NNE,22,0.0,0.0,91,0.00,OVC,,0.00,WeatherDisplay:10.37,2013-03-28 12:13:00,
2013-03-28 07:18:00,14.5,12.1,30.32,NNE,22,0.0,0.0,90,0.00,OVC,,0.00,WeatherDisplay:10.37,2013-03-28 12:18:00,
2013-03-28 07:23:00,14.5,11.9,30.33,NNE,22,0.0,0.0,89,0.00,OVC,,0.00,WeatherDisplay:10.37,2013-03-28 12:23:00,
2013-03-28 07:28:00,14.7,12.0,30.33,NNE,22,0.0,0.0,89,0.00,OVC,,0.00,WeatherDisplay:10.37,2013-03-28 12:28:00,
2013-03-28 07:33:00,15.3,12.6,30.33,NNE,22,0.0,0.0,89,0.00,OVC,,0.00,WeatherDisplay:10.37,2013-03-28 12:33:00,
2013-03-28 07:38:00,15.4,12.7,30.33,NNE,22,0.0,0.0,89,0.00,OVC,,0.00,WeatherDisplay:10.37,2013-03-28 12:38:00,
2013-03-28 07:43:00,16.3,13.4,30.33,NNE,22,0.0,0.0,88,0.00,OVC,,0.00,WeatherDisplay:10.37,2013-03-28 12:43:00,
2013-03-28 07:48:00,18.0,14.3,30.32,NNE,22,0.0,0.0,85,0.00,OVC,,0.00,WeatherDisplay:10.37,2013-03-28 12:48:00,
2013-03-28 07:53:00,18.7,14.7,30.32,NNE,22,0.0,0.0,84,0.00,OVC,,0.00,WeatherDisplay:10.37,2013-03-28 12:53:00,
2013-03-28 07:59:00,20.5,16.2,30.33,NNE,22,0.0,0.0,83,0.00,OVC,,0.00,WeatherDisplay:10.37,2013-03-28 12:59:00,
2013-03-28 08:04:00,22.3,15.6,30.33,NNE,22,0.0,0.0,75,0.00,OVC,,0.00,WeatherDisplay:10.37,2013-03-28 13:04:00,
2013-03-28 08:09:00,23.5,16.4,30.33,NNE,22,0.0,0.0,74,0.00,OVC,,0.00,WeatherDisplay:10.37,2013-03-28 13:09:00,
2013-03-28 08:14:00,25.0,18.8,30.33,NNE,22,0.0,0.0,77,0.00,OVC,,0.00,WeatherDisplay:10.37,2013-03-28 13:14:00,
2013-03-28 08:19:00,26.2,20.6,30.33,South,180,0.0,0.0,79,0.00,OVC,,0.00,WeatherDisplay:10.37,2013-03-28 13:19:00,
2013-03-28 08:24:00,27.1,18.3,30.33,ESE,112,0.0,0.0,69,0.00,OVC,,0.00,WeatherDisplay:10.37,2013-03-28 13:24:00,
2013-03-28 08:29:00,28.6,21.4,30.33,ESE,112,0.0,0.0,74,0.00,OVC,,0.00,WeatherDisplay:10.37,2013-03-28 13:29:00,
2013-03-28 08:34:00,26.4,18.3,30.33,ESE,112,0.0,0.0,71,0.00,OVC,,0.00,WeatherDisplay:10.37,2013-03-28 13:34:00,
2013-03-28 08:39:00,26.4,18.3,30.33,SE,135,0.0,0.0,71,0.00,OVC,,0.00,WeatherDisplay:10.37,2013-03-28 13:39:00,
2013-03-28 08:44:00,27.3,18.1,30.33,SE,135,0.0,0.0,68,0.00,OVC,,0.00,WeatherDisplay:10.37,2013-03-28 13:44:00,
2013-03-28 08:50:00,29.5,20.2,30.33,South,180,0.0,0.0,68,0.00,OVC,,0.00,WeatherDisplay:10.37,2013-03-28 13:50:00,
2013-03-28 08:55:00,27.5,18.7,30.33,South,180,0.0,0.0,69,0.00,OVC,,0.00,WeatherDisplay:10.37,2013-03-28 13:55:00,
2013-03-28 09:00:00,30.7,19.6,30.33,SSE,158,1.1,1.1,63,0.00,OVC,,0.00,WeatherDisplay:10.37,2013-03-28 14:00:00,
2013-03-28 09:05:00,31.1,21.4,30.33,SW,225,0.0,0.0,67,0.00,OVC,,0.00,WeatherDisplay:10.37,2013-03-28 14:05:00,
2013-03-28 09:10:00,31.8,22.1,30.33,SE,135,0.0,0.0,67,0.00,OVC,,0.00,WeatherDisplay:10.37,2013-03-28 14:10:00,
2013-03-28 09:15:00,32.0,22.3,30.33,SSE,158,0.9,2.3,67,0.00,OVC,,0.00,WeatherDisplay:10.37,2013-03-28 14:15:00,
2013-03-28 09:20:00,32.4,21.9,30.33,South,180,0.9,2.3,65,0.00,OVC,,0.00,WeatherDisplay:10.37,2013-03-28 14:20:00,
2013-03-28 09:25:00,32.7,22.2,30.34,SE,135,2.2,2.7,65,0.00,OVC,,0.00,WeatherDisplay:10.37,2013-03-28 14:25:00,
2013-03-28 09:30:00,33.4,22.5,30.34,SSE,158,1.7,2.3,64,0.00,OVC,,0.00,WeatherDisplay:10.37,2013-03-28 14:30:00,
2013-03-28 09:35:00,34.2,22.5,30.33,SSE,158,2.3,2.3,62,0.00,OVC,,0.00,WeatherDisplay:10.37,2013-03-28 14:35:00,
2013-03-28 09:41:00,34.2,22.1,30.33,SSE,158,1.9,2.3,61,0.00,OVC,,0.00,WeatherDisplay:10.37,2013-03-28 14:41:00,
2013-03-28 09:46:00,35.2,22.3,30.33,SSE,158,0.5,2.7,59,0.00,OVC,,0.00,WeatherDisplay:10.37,2013-03-28 14:46:00,
2013-03-28 09:51:00,35.6,22.3,30.33,NNE,22,1.4,2.3,58,0.00,OVC,,0.00,WeatherDisplay:10.37,2013-03-28 14:51:00,
2013-03-28 09:56:00,36.5,22.3,30.33,ESE,112,2.5,3.5,56,0.00,OVC,,0.00,WeatherDisplay:10.37,2013-03-28 14:56:00,
2013-03-28 10:02:00,37.4,22.7,30.33,ESE,112,2.2,2.7,55,0.00,OVC,,0.00,WeatherDisplay:10.37,2013-03-28 15:02:00,
2013-03-28 10:07:00,37.6,22.4,30.33,ENE,68,3.9,5.8,54,0.00,OVC,,0.00,WeatherDisplay:10.37,2013-03-28 15:07:00,
2013-03-28 10:12:00,37.8,22.2,30.33,ESE,112,2.8,3.2,53,0.00,OVC,,0.00,WeatherDisplay:10.37,2013-03-28 15:12:00,
2013-03-28 10:17:00,38.1,22.5,30.33,ESE,112,2.2,2.7,53,0.00,OVC,,0.00,WeatherDisplay:10.37,2013-03-28 15:17:00,
2013-03-28 10:22:00,38.7,22.6,30.33,SE,135,3.1,3.5,52,0.00,OVC,,0.00,WeatherDisplay:10.37,2013-03-28 15:22:00,
2013-03-28 10:27:00,39.0,22.8,30.33,SSE,158,2.8,3.7,52,0.00,OVC,,0.00,WeatherDisplay:10.37,2013-03-28 15:27:00,
2013-03-28 10:32:00,39.0,21.9,30.33,SE,135,3.5,4.6,50,0.00,OVC,,0.00,WeatherDisplay:10.37,2013-03-28 15:32:00,
2013-03-28 10:38:00,39.6,22.5,30.33,SSE,158,2.7,3.5,50,0.00,OVC,,0.00,WeatherDisplay:10.37,2013-03-28 15:38:00,
2013-03-28 10:43:00,39.4,22.3,30.33,ESE,112,1.9,2.7,50,0.00,OVC,,0.00,WeatherDisplay:10.37,2013-03-28 15:43:00,
2013-03-28 10:48:00,40.3,22.6,30.33,South,180,2.2,3.5,49,0.00,OVC,,0.00,WeatherDisplay:10.37,2013-03-28 15:48:00,
2013-03-28 10:53:00,40.1,22.4,30.33,East,90,2.4,3.2,49,0.00,OVC,,0.00,WeatherDisplay:10.37,2013-03-28 15:53:00,
2013-03-28 10:58:00,40.5,22.3,30.33,ESE,112,3.3,4.2,48,0.00,OVC,,0.00,WeatherDisplay:10.37,2013-03-28 15:58:00,
2013-03-28 11:03:00,41.4,22.1,30.33,ENE,68,2.6,3.2,46,0.00,OVC,,0.00,WeatherDisplay:10.37,2013-03-28 16:03:00,
2013-03-28 11:08:00,41.0,22.3,30.33,ENE,68,2.2,2.3,47,0.00,OVC,,0.00,WeatherDisplay:10.37,2013-03-28 16:08:00,
2013-03-28 11:13:00,41.9,22.1,30.33,ESE,112,4.1,4.6,45,0.00,OVC,,0.00,WeatherDisplay:10.37,2013-03-28 16:13:00,
2013-03-28 11:18:00,41.2,23.0,30.33,SE,135,3.6,4.6,48,0.00,OVC,,0.00,WeatherDisplay:10.37,2013-03-28 16:18:00,
2013-03-28 11:23:00,41.7,21.9,30.33,ENE,68,4.3,4.6,45,0.00,OVC,,0.00,WeatherDisplay:10.37,2013-03-28 16:23:00,
2013-03-28 11:29:00,42.3,22.4,30.33,South,180,3.9,5.8,45,0.00,OVC,,0.00,WeatherDisplay:10.37,2013-03-28 16:29:00,
2013-03-28 11:34:00,42.3,22.4,30.33,South,180,3.6,4.2,45,0.00,OVC,,0.00,WeatherDisplay:10.37,2013-03-28 16:34:00,
2013-03-28 11:39:00,42.8,21.8,30.33,ESE,112,4.4,5.8,43,0.00,OVC,,0.00,WeatherDisplay:10.37,2013-03-28 16:39:00,
2013-03-28 11:44:00,42.4,21.5,30.33,ESE,112,2.0,3.5,43,0.00,OVC,,0.00,WeatherDisplay:10.37,2013-03-28 16:44:00,
2013-03-28 11:49:00,44.2,22.5,30.33,South,180,3.7,4.6,42,0.00,OVC,,0.00,WeatherDisplay:10.37,2013-03-28 16:49:00,
2013-03-28 11:54:00,43.2,21.6,30.33,WSW,248,2.8,4.6,42,0.00,OVC,,0.00,WeatherDisplay:10.37,2013-03-28 16:54:00,
2013-03-28 11:59:00,44.6,22.3,30.33,ESE,112,3.2,4.6,41,0.00,OVC,,0.00,WeatherDisplay:10.37,2013-03-28 16:59:00,
2013-03-28 12:04:00,43.5,22.5,30.33,SSE,158,1.5,2.7,43,0.00,OVC,,0.00,WeatherDisplay:10.37,2013-03-28 17:04:00,
2013-03-28 12:09:00,43.7,22.6,30.33,South,180,2.1,4.6,43,0.00,OVC,,0.00,WeatherDisplay:10.37,2013-03-28 17:09:00,
2013-03-28 12:14:00,44.2,22.5,30.33,SE,135,2.5,5.8,42,0.00,OVC,,0.00,WeatherDisplay:10.37,2013-03-28 17:14:00,
2013-03-28 12:20:00,43.7,21.5,30.33,South,180,4.2,5.8,41,0.00,OVC,,0.00,WeatherDisplay:10.37,2013-03-28 17:20:00,
2013-03-28 12:25:00,45.1,22.2,30.32,SE,135,4.7,6.3,40,0.00,OVC,,0.00,WeatherDisplay:10.37,2013-03-28 17:25:00,
2013-03-28 12:30:00,44.8,22.5,30.32,South,180,3.5,4.6,41,0.00,OVC,,0.00,WeatherDisplay:10.37,2013-03-28 17:30:00,
2013-03-28 12:35:00,45.1,22.8,30.32,SSE,158,3.5,5.8,41,0.00,OVC,,0.00,WeatherDisplay:10.37,2013-03-28 17:35:00,
2013-03-28 12:40:00,45.0,22.7,30.32,South,180,4.5,4.7,41,0.00,OVC,,0.00,WeatherDisplay:10.37,2013-03-28 17:40:00,
2013-03-28 12:45:00,45.5,23.1,30.31,South,180,3.2,4.6,41,0.00,OVC,,0.00,WeatherDisplay:10.37,2013-03-28 17:45:00,
2013-03-28 12:50:00,45.7,22.7,30.31,South,180,2.0,3.5,40,0.00,OVC,,0.00,WeatherDisplay:10.37,2013-03-28 17:50:00,
2013-03-28 12:55:00,46.2,22.6,30.31,South,180,4.8,6.8,39,0.00,OVC,,0.00,WeatherDisplay:10.37,2013-03-28 17:55:00,
2013-03-28 13:00:00,45.5,22.5,30.31,South,180,2.8,3.5,40,0.00,OVC,,0.00,WeatherDisplay:10.37,2013-03-28 18:00:00,
2013-03-28 13:05:00,46.4,22.8,30.31,SSW,202,2.9,4.6,39,0.00,OVC,,0.00,WeatherDisplay:10.37,2013-03-28 18:05:00,
2013-03-28 13:11:00,46.4,22.8,30.31,WSW,248,2.7,2.7,39,0.00,OVC,,0.00,WeatherDisplay:10.37,2013-03-28 18:11:00,
2013-03-28 13:16:00,47.3,22.3,30.31,West,270,2.0,2.3,37,0.00,OVC,,0.00,WeatherDisplay:10.37,2013-03-28 18:16:00,
2013-03-28 13:21:00,46.2,22.6,30.31,SE,135,3.6,4.6,39,0.00,OVC,,0.00,WeatherDisplay:10.37,2013-03-28 18:21:00,
2013-03-28 13:26:00,46.6,22.3,30.31,SW,225,3.5,4.7,38,0.00,OVC,,0.00,WeatherDisplay:10.37,2013-03-28 18:26:00,
2013-03-28 13:31:00,46.6,22.9,30.31,East,90,2.5,3.5,39,0.00,OVC,,0.00,WeatherDisplay:10.37,2013-03-28 18:31:00,
2013-03-28 13:36:00,44.4,22.1,30.31,SE,135,2.2,3.5,41,0.00,OVC,,0.00,WeatherDisplay:10.37,2013-03-28 18:36:00,
2013-03-28 13:41:00,45.3,22.4,30.31,SE,135,2.9,3.5,40,0.00,OVC,,0.00,WeatherDisplay:10.37,2013-03-28 18:41:00,
2013-03-28 13:47:00,45.1,21.6,30.30,SSE,158,1.9,3.5,39,0.00,OVC,,0.00,WeatherDisplay:10.37,2013-03-28 18:47:00,
2013-03-28 13:52:00,45.0,22.7,30.30,ESE,112,2.6,3.5,41,0.00,OVC,,0.00,WeatherDisplay:10.37,2013-03-28 18:52:00,
2013-03-28 13:57:00,45.7,22.1,30.30,SW,225,4.1,5.8,39,0.00,OVC,,0.00,WeatherDisplay:10.37,2013-03-28 18:57:00,
2013-03-28 14:02:00,45.0,21.5,30.30,SSW,202,2.0,5.8,39,0.00,OVC,,0.00,WeatherDisplay:10.37,2013-03-28 19:02:00,
2013-03-28 14:07:00,45.0,21.5,30.30,SSW,202,3.7,3.7,39,0.00,OVC,,0.00,WeatherDisplay:10.37,2013-03-28 19:07:00,
2013-03-28 14:12:00,45.0,21.5,30.30,SSW,202,3.7,3.7,39,0.00,OVC,,0.00,WeatherDisplay:10.37,2013-03-28 19:12:00,
2013-03-28 14:17:00,45.0,21.5,30.30,SSW,202,3.7,3.7,39,0.00,OVC,,0.00,WeatherDisplay:10.37,2013-03-28 19:17:00,
2013-03-28 14:22:00,46.6,22.3,30.29,South,180,3.9,4.6,38,0.00,OVC,,0.00,WeatherDisplay:10.37,2013-03-28 19:22:00,
2013-03-28 14:27:00,46.8,22.5,30.29,WSW,248,4.3,5.8,38,0.00,OVC,,0.00,WeatherDisplay:10.37,2013-03-28 19:27:00,
2013-03-28 14:32:00,46.9,22.0,30.29,South,180,2.0,3.5,37,0.00,OVC,,0.00,WeatherDisplay:10.37,2013-03-28 19:32:00,
2013-03-28 14:38:00,47.3,22.3,30.29,SSE,158,4.8,5.8,37,0.00,OVC,,0.00,WeatherDisplay:10.37,2013-03-28 19:38:00,
2013-03-28 14:43:00,46.4,22.8,30.29,SSE,158,2.2,2.3,39,0.00,OVC,,0.00,WeatherDisplay:10.37,2013-03-28 19:43:00,
2013-03-28 14:48:00,47.1,22.1,30.28,South,180,3.1,4.6,37,0.00,OVC,,0.00,WeatherDisplay:10.37,2013-03-28 19:48:00,
2013-03-28 14:53:00,47.7,22.0,30.28,SSW,202,4.5,5.8,36,0.00,OVC,,0.00,WeatherDisplay:10.37,2013-03-28 19:53:00,
2013-03-28 14:58:00,47.3,22.3,30.28,SSW,202,2.9,5.8,37,0.00,OVC,,0.00,WeatherDisplay:10.37,2013-03-28 19:58:00,
2013-03-28 15:03:00,46.8,22.5,30.28,SSE,158,2.2,2.3,38,0.00,OVC,,0.00,WeatherDisplay:10.37,2013-03-28 20:03:00,
2013-03-28 15:08:00,46.9,22.6,30.28,SSW,202,2.3,3.5,38,0.00,OVC,,0.00,WeatherDisplay:10.37,2013-03-28 20:08:00,
2013-03-28 15:13:00,47.8,22.8,30.28,SSW,202,3.4,4.6,37,0.00,OVC,,0.00,WeatherDisplay:10.37,2013-03-28 20:13:00,
2013-03-28 15:18:00,47.7,22.7,30.28,SSE,158,3.7,6.8,37,0.00,OVC,,0.00,WeatherDisplay:10.37,2013-03-28 20:18:00,
2013-03-28 15:24:00,47.7,22.7,30.27,SW,225,3.6,6.3,37,0.00,OVC,,0.00,WeatherDisplay:10.37,2013-03-28 20:24:00,
2013-03-28 15:29:00,48.4,22.6,30.27,SSW,202,3.5,5.8,36,0.00,OVC,,0.00,WeatherDisplay:10.37,2013-03-28 20:29:00,
2013-03-28 15:34:00,47.5,21.8,30.27,West,270,3.7,4.7,36,0.00,OVC,,0.00,WeatherDisplay:10.37,2013-03-28 20:34:00,
2013-03-28 15:39:00,47.7,21.3,30.27,WSW,248,3.4,5.3,35,0.00,OVC,,0.00,WeatherDisplay:10.37,2013-03-28 20:39:00,
2013-03-28 15:44:00,47.1,21.5,30.27,SSE,158,4.2,4.6,36,0.00,OVC,,0.00,WeatherDisplay:10.37,2013-03-28 20:44:00,
2013-03-28 15:49:00,47.1,20.8,30.27,SSW,202,4.5,5.8,35,0.00,OVC,,0.00,WeatherDisplay:10.37,2013-03-28 20:49:00,
2013-03-28 15:54:00,47.1,22.1,30.27,SE,135,3.8,5.8,37,0.00,OVC,,0.00,WeatherDisplay:10.37,2013-03-28 20:54:00,
2013-03-28 15:59:00,47.1,22.1,30.27,SSE,158,1.9,3.5,37,0.00,OVC,,0.00,WeatherDisplay:10.37,2013-03-28 20:59:00,
2013-03-28 16:04:00,47.7,22.0,30.27,South,180,3.2,4.6,36,0.00,OVC,,0.00,WeatherDisplay:10.37,2013-03-28 21:04:00,
2013-03-28 16:09:00,46.6,21.7,30.26,SSE,158,1.7,3.5,37,0.00,OVC,,0.00,WeatherDisplay:10.37,2013-03-28 21:09:00,
2013-03-28 16:15:00,48.2,21.8,30.26,West,270,3.0,3.5,35,0.00,OVC,,0.00,WeatherDisplay:10.37,2013-03-28 21:15:00,
2013-03-28 16:20:00,48.0,21.6,30.26,SSW,202,4.7,5.8,35,0.00,OVC,,0.00,WeatherDisplay:10.37,2013-03-28 21:20:00,
2013-03-28 16:25:00,46.8,21.9,30.27,WSW,248,2.6,4.2,37,0.00,OVC,,0.00,WeatherDisplay:10.37,2013-03-28 21:25:00,
2013-03-28 16:30:00,48.0,22.3,30.27,SSW,202,3.5,3.7,36,0.00,OVC,,0.00,WeatherDisplay:10.37,2013-03-28 21:30:00,
2013-03-28 16:35:00,47.7,22.0,30.27,SSE,158,2.9,4.6,36,0.00,OVC,,0.00,WeatherDisplay:10.37,2013-03-28 21:35:00,
2013-03-28 16:40:00,47.1,20.8,30.27,SE,135,2.1,2.3,35,0.00,OVC,,0.00,WeatherDisplay:10.37,2013-03-28 21:40:00,
2013-03-28 16:45:00,47.1,20.8,30.26,South,180,3.1,3.5,35,0.00,OVC,,0.00,WeatherDisplay:10.37,2013-03-28 21:45:00,
2013-03-28 16:50:00,47.7,21.3,30.26,South,180,2.4,3.5,35,0.00,OVC,,0.00,WeatherDisplay:10.37,2013-03-28 21:50:00,
2013-03-28 16:55:00,47.7,21.3,30.26,SW,225,3.2,3.5,35,0.00,OVC,,0.00,WeatherDisplay:10.37,2013-03-28 21:55:00,
2013-03-28 17:00:00,46.8,21.2,30.26,SW,225,2.6,3.5,36,0.00,OVC,,0.00,WeatherDisplay:10.37,2013-03-28 22:00:00,
2013-03-28 17:06:00,47.7,20.7,30.26,SSW,202,2.0,3.5,34,0.00,OVC,,0.00,WeatherDisplay:10.37,2013-03-28 22:06:00,
2013-03-28 17:11:00,47.7,20.7,30.26,West,270,3.9,4.6,34,0.00,OVC,,0.00,WeatherDisplay:10.37,2013-03-28 22:11:00,
2013-03-28 17:16:00,47.3,21.0,30.26,South,180,1.7,1.7,35,0.00,OVC,,0.00,WeatherDisplay:10.37,2013-03-28 22:16:00,
2013-03-28 17:21:00,47.5,20.5,30.26,South,180,2.5,2.7,34,0.00,OVC,,0.00,WeatherDisplay:10.37,2013-03-28 22:21:00,
2013-03-28 17:26:00,47.3,21.0,30.26,ENE,68,1.7,2.7,35,0.00,OVC,,0.00,WeatherDisplay:10.37,2013-03-28 22:26:00,
2013-03-28 17:31:00,47.7,22.0,30.26,West,270,2.3,2.7,36,0.00,OVC,,0.00,WeatherDisplay:10.37,2013-03-28 22:31:00,
2013-03-28 17:36:00,49.3,22.1,30.25,ESE,112,2.5,3.5,34,0.00,OVC,,0.00,WeatherDisplay:10.37,2013-03-28 22:36:00,
2013-03-28 17:41:00,49.8,21.1,30.25,SW,225,2.3,3.5,32,0.00,OVC,,0.00,WeatherDisplay:10.37,2013-03-28 22:41:00,
2013-03-28 17:47:00,51.3,22.4,30.26,SW,225,3.0,3.5,32,0.00,OVC,,0.00,WeatherDisplay:10.37,2013-03-28 22:47:00,
2013-03-28 17:52:00,51.6,21.9,30.26,South,180,2.3,3.5,31,0.00,OVC,,0.00,WeatherDisplay:10.37,2013-03-28 22:52:00,
2013-03-28 17:57:00,50.9,22.8,30.26,South,180,2.4,4.6,33,0.00,OVC,,0.00,WeatherDisplay:10.37,2013-03-28 22:57:00,
2013-03-28 18:02:00,48.2,21.8,30.26,SSW,202,3.3,4.7,35,0.00,OVC,,0.00,WeatherDisplay:10.37,2013-03-28 23:02:00,
2013-03-28 18:07:00,48.0,22.3,30.26,SW,225,2.9,4.6,36,0.00,OVC,,0.00,WeatherDisplay:10.37,2013-03-28 23:07:00,
2013-03-28 18:12:00,48.9,23.1,30.26,WSW,248,2.6,3.5,36,0.00,OVC,,0.00,WeatherDisplay:10.37,2013-03-28 23:12:00,
2013-03-28 18:18:00,48.7,22.9,30.26,SSE,158,2.1,2.7,36,0.00,OVC,,0.00,WeatherDisplay:10.37,2013-03-28 23:18:00,
2013-03-28 18:23:00,48.7,22.9,30.25,SSW,202,2.0,3.5,36,0.00,OVC,,0.00,WeatherDisplay:10.37,2013-03-28 23:23:00,
2013-03-28 18:28:00,48.0,22.9,30.25,SSE,158,1.1,2.3,37,0.00,OVC,,0.00,WeatherDisplay:10.37,2013-03-28 23:28:00,
2013-03-28 18:33:00,48.0,22.9,30.25,South,180,2.1,2.7,37,0.00,OVC,,0.00,WeatherDisplay:10.37,2013-03-28 23:33:00,
2013-03-28 18:38:00,47.3,22.9,30.25,SW,225,1.3,1.3,38,0.00,OVC,,0.00,WeatherDisplay:10.37,2013-03-28 23:38:00,
2013-03-28 18:43:00,46.0,22.4,30.25,North,360,1.6,3.5,39,0.00,OVC,,0.00,WeatherDisplay:10.37,2013-03-28 23:43:00,
2013-03-28 18:48:00,45.0,23.3,30.26,North,360,0.8,2.3,42,0.00,OVC,,0.00,WeatherDisplay:10.37,2013-03-28 23:48:00,
2013-03-28 18:53:00,44.2,22.5,30.26,ESE,112,2.3,2.3,42,0.00,OVC,,0.00,WeatherDisplay:10.37,2013-03-28 23:53:00,
2013-03-28 18:58:00,44.4,22.7,30.26,SSE,158,1.1,1.1,42,0.00,OVC,,0.00,WeatherDisplay:10.37,2013-03-28 23:58:00,
2013-03-28 19:03:00,43.9,22.8,30.26,SSE,158,1.1,2.3,43,0.00,OVC,,0.00,WeatherDisplay:10.37,2013-03-29 00:03:00,
2013-03-28 19:09:00,43.2,23.3,30.26,SSE,158,0.7,1.1,45,0.00,OVC,,0.00,WeatherDisplay:10.37,2013-03-29 00:09:00,
2013-03-28 19:14:00,42.4,22.5,30.26,South,180,1.6,2.3,45,0.00,OVC,,0.00,WeatherDisplay:10.37,2013-03-29 00:14:00,
2013-03-28 19:19:00,42.3,23.0,30.26,SSE,158,0.0,0.0,46,0.00,OVC,,0.00,WeatherDisplay:10.37,2013-03-29 00:19:00,
2013-03-28 19:24:00,41.9,22.6,30.26,SE,135,0.0,0.0,46,0.00,OVC,,0.00,WeatherDisplay:10.37,2013-03-29 00:24:00,
2013-03-28 19:29:00,41.5,22.2,30.26,ESE,112,0.0,0.0,46,0.00,OVC,,0.00,WeatherDisplay:10.37,2013-03-29 00:29:00,
2013-03-28 19:34:00,41.2,23.0,30.27,SE,135,0.0,0.0,48,0.00,OVC,,0.00,WeatherDisplay:10.37,2013-03-29 00:34:00,
2013-03-28 19:39:00,40.3,22.6,30.27,ESE,112,0.0,0.0,49,0.00,OVC,,0.00,WeatherDisplay:10.37,2013-03-29 00:39:00,
2013-03-28 19:44:00,39.6,22.5,30.27,SE,135,0.0,0.0,50,0.00,OVC,,0.00,WeatherDisplay:10.37,2013-03-29 00:44:00,
2013-03-28 19:49:00,38.8,22.7,30.26,ESE,112,0.3,1.1,52,0.00,OVC,,0.00,WeatherDisplay:10.37,2013-03-29 00:49:00,
2013-03-28 19:54:00,38.5,22.8,30.26,SE,135,0.0,0.0,53,0.00,OVC,,0.00,WeatherDisplay:10.37,2013-03-29 00:54:00,
2013-03-28 20:00:00,37.9,22.3,30.26,SE,135,0.0,0.0,53,0.00,OVC,,0.00,WeatherDisplay:10.37,2013-03-29 01:00:00,
2013-03-28 20:05:00,37.4,22.3,30.26,SE,135,0.0,0.0,54,0.00,OVC,,0.00,WeatherDisplay:10.37,2013-03-29 01:05:00,
2013-03-28 20:10:00,36.9,21.8,30.27,ESE,112,0.0,0.0,54,0.00,OVC,,0.00,WeatherDisplay:10.37,2013-03-29 01:10:00,
2013-03-28 20:15:00,36.5,22.3,30.27,SE,135,0.0,0.0,56,0.00,OVC,,0.00,WeatherDisplay:10.37,2013-03-29 01:15:00,
2013-03-28 20:20:00,36.0,22.2,30.27,ESE,112,0.0,0.0,57,0.00,OVC,,0.00,WeatherDisplay:10.37,2013-03-29 01:20:00,
2013-03-28 20:25:00,35.4,22.1,30.26,SE,135,0.0,0.0,58,0.00,OVC,,0.00,WeatherDisplay:10.37,2013-03-29 01:25:00,
2013-03-28 20:30:00,35.1,21.8,30.26,ESE,112,0.0,0.0,58,0.00,OVC,,0.00,WeatherDisplay:10.37,2013-03-29 01:30:00,
2013-03-28 20:35:00,34.9,22.0,30.26,ESE,112,0.0,0.0,59,0.00,OVC,,0.00,WeatherDisplay:10.37,2013-03-29 01:35:00,
2013-03-28 20:40:00,34.7,23.0,30.26,ESE,112,1.8,2.3,62,0.00,OVC,,0.00,WeatherDisplay:10.37,2013-03-29 01:40:00,
2013-03-28 20:45:00,34.7,23.0,30.27,East,90,2.0,2.3,62,0.00,OVC,,0.00,WeatherDisplay:10.37,2013-03-29 01:45:00,
2013-03-28 20:51:00,34.7,22.6,30.27,ESE,112,0.0,1.1,61,0.00,OVC,,0.00,WeatherDisplay:10.37,2013-03-29 01:51:00,
2013-03-28 20:56:00,34.7,22.2,30.27,ESE,112,0.0,0.0,60,0.00,OVC,,0.00,WeatherDisplay:10.37,2013-03-29 01:56:00,
2013-03-28 21:01:00,34.3,22.2,30.27,SE,135,0.0,0.0,61,0.00,OVC,,0.00,WeatherDisplay:10.37,2013-03-29 02:01:00,
2013-03-28 21:06:00,34.0,21.6,30.27,SE,135,0.0,0.0,60,0.00,OVC,,0.00,WeatherDisplay:10.37,2013-03-29 02:06:00,
2013-03-28 21:11:00,33.6,21.2,30.27,SE,135,0.0,0.0,60,0.00,OVC,,0.00,WeatherDisplay:10.37,2013-03-29 02:11:00,
2013-03-28 21:16:00,33.1,22.2,30.27,SE,135,0.0,0.0,64,0.00,OVC,,0.00,WeatherDisplay:10.37,2013-03-29 02:16:00,
2013-03-28 21:22:00,32.5,22.0,30.27,East,90,1.7,2.3,65,0.00,OVC,,0.00,WeatherDisplay:10.37,2013-03-29 02:22:00,
2013-03-28 21:27:00,32.4,22.3,30.27,East,90,1.9,2.3,66,0.00,OVC,,0.00,WeatherDisplay:10.37,2013-03-29 02:27:00,
2013-03-28 21:32:00,32.4,22.3,30.27,ESE,112,0.0,0.0,66,0.00,OVC,,0.00,WeatherDisplay:10.37,2013-03-29 02:32:00,
2013-03-28 21:37:00,32.2,22.1,30.27,SE,135,0.0,0.0,66,0.00,OVC,,0.00,WeatherDisplay:10.37,2013-03-29 02:37:00,
2013-03-28 21:42:00,31.8,22.4,30.27,SE,135,0.0,0.0,68,0.00,OVC,,0.00,WeatherDisplay:10.37,2013-03-29 02:42:00,
2013-03-28 21:47:00,31.5,22.8,30.27,East,90,0.0,0.0,70,0.00,OVC,,0.00,WeatherDisplay:10.37,2013-03-29 02:47:00,
2013-03-28 21:52:00,31.5,22.8,30.27,SE,135,0.0,0.0,70,0.00,OVC,,0.00,WeatherDisplay:10.37,2013-03-29 02:52:00,
2013-03-28 21:57:00,31.3,22.6,30.27,SE,135,0.0,0.0,70,0.00,OVC,,0.00,WeatherDisplay:10.37,2013-03-29 02:57:00,
2013-03-28 22:03:00,30.9,22.6,30.28,SE,135,0.0,0.0,71,0.00,OVC,,0.00,WeatherDisplay:10.37,2013-03-29 03:03:00,
2013-03-28 22:08:00,30.6,22.6,30.28,ESE,112,0.0,0.0,72,0.00,OVC,,0.00,WeatherDisplay:10.37,2013-03-29 03:08:00,
2013-03-28 22:13:00,30.2,22.6,30.28,SE,135,0.0,0.0,73,0.00,OVC,,0.00,WeatherDisplay:10.37,2013-03-29 03:13:00,
2013-03-28 22:18:00,29.8,22.2,30.28,ESE,112,0.0,0.0,73,0.00,OVC,,0.00,WeatherDisplay:10.37,2013-03-29 03:18:00,
2013-03-28 22:23:00,29.3,21.7,30.28,WNW,292,0.0,0.0,73,0.00,OVC,,0.00,WeatherDisplay:10.37,2013-03-29 03:23:00,
2013-03-28 22:28:00,29.3,21.7,30.28,NW,315,0.0,0.0,73,0.00,OVC,,0.00,WeatherDisplay:10.37,2013-03-29 03:28:00,
2013-03-28 22:33:00,29.1,21.5,30.28,NW,315,0.0,0.0,73,0.00,OVC,,0.00,WeatherDisplay:10.37,2013-03-29 03:33:00,
2013-03-28 22:38:00,28.8,21.6,30.28,NW,315,0.0,0.0,74,0.00,OVC,,0.00,WeatherDisplay:10.37,2013-03-29 03:38:00,
2013-03-28 22:43:00,28.4,20.8,30.28,NW,315,0.0,0.0,73,0.00,OVC,,0.00,WeatherDisplay:10.37,2013-03-29 03:43:00,
2013-03-28 22:48:00,28.2,20.7,30.27,NW,315,0.0,0.0,73,0.00,OVC,,0.00,WeatherDisplay:10.37,2013-03-29 03:48:00,
2013-03-28 22:54:00,27.9,20.7,30.27,NW,315,0.0,0.0,74,0.00,OVC,,0.00,WeatherDisplay:10.37,2013-03-29 03:54:00,
2013-03-28 22:59:00,27.5,20.6,30.27,NW,315,0.0,0.0,75,0.00,OVC,,0.00,WeatherDisplay:10.37,2013-03-29 03:59:00,
2013-03-28 23:00:00,27.3,20.4,30.27,NW,315,0.0,0.0,75,0.00,OVC,,0.00,WeatherDisplay:10.37,2013-03-29 04:00:00,
2013-03-28 23:02:00,27.3,20.7,30.27,NW,315,0.0,0.0,76,0.00,OVC,,0.00,WeatherDisplay:10.37,2013-03-29 04:02:00,
2013-03-28 23:07:00,27.1,20.5,30.27,NW,315,0.0,0.0,76,0.00,OVC,,0.00,WeatherDisplay:10.37,2013-03-29 04:07:00,
2013-03-28 23:12:00,27.0,21.1,30.27,NW,315,0.0,0.0,78,0.00,OVC,,0.00,WeatherDisplay:10.37,2013-03-29 04:12:00,
2013-03-28 23:17:00,27.0,20.7,30.27,NW,315,0.0,0.0,77,0.00,OVC,,0.00,WeatherDisplay:10.37,2013-03-29 04:17:00,
2013-03-28 23:22:00,26.8,20.6,30.27,NW,315,0.0,0.0,77,0.00,OVC,,0.00,WeatherDisplay:10.37,2013-03-29 04:22:00,
2013-03-28 23:27:00,26.6,20.7,30.27,NW,315,0.0,0.0,78,0.00,OVC,,0.00,WeatherDisplay:10.37,2013-03-29 04:27:00,
2013-03-28 23:33:00,26.6,20.4,30.27,NW,315,0.0,0.0,77,0.00,OVC,,0.00,WeatherDisplay:10.37,2013-03-29 04:33:00,
2013-03-28 23:38:00,26.6,20.1,30.27,NW,315,0.0,0.0,76,0.00,OVC,,0.00,WeatherDisplay:10.37,2013-03-29 04:38:00,
2013-03-28 23:43:00,26.4,20.2,30.27,NW,315,0.0,0.0,77,0.00,OVC,,0.00,WeatherDisplay:10.37,2013-03-29 04:43:00,
2013-03-28 23:48:00,26.4,20.5,30.27,NW,315,0.0,0.0,78,0.00,OVC,,0.00,WeatherDisplay:10.37,2013-03-29 04:48:00,
2013-03-28 23:53:00,26.4,20.5,30.27,NW,315,0.0,0.0,78,0.00,OVC,,0.00,WeatherDisplay:10.37,2013-03-29 04:53:00,
2013-03-28 23:58:00,26.2,20.6,30.27,NW,315,0.0,0.0,79,0.00,OVC,,0.00,WeatherDisplay:10.37,2013-03-29 04:58:00,